Time;durP1;ratioP1;P1;durP2;ratioP2;P2;SDS_P1;SDS_P2;PMS_P1;PMS_P2;Temp;Humidity;BMP_temperature;BMP_pressure;BME280_temperature;BME280_humidity;BME280_pressure;Samples;Min_cycle;Max_cycle;Signal;HPM_P1;HPM_P2
2023/12/01 14:49:13;;;;;;;19.40;6.57;;;;;;;15.68;82.65;95230.03;5076389;28;20442;-27
2023/12/01 14:51:39;;;;;;;23.23;7.70;;;;;;;15.79;81.94;95232.84;5077249;28;21432;-27
2023/12/01 14:54:04;;;;;;;24.33;8.77;;;;;;;16.12;80.38;95232.22;5073537;28;20020;-26
2023/12/01 14:56:32;;;;;;;18.58;6.45;;;;;;;16.26;80.08;95236.00;5074620;28;20475;-26
2023/12/01 14:58:57;;;;;;;21.70;7.70;;;;;;;16.32;80.20;95238.78;5077959;28;20032;-26
2023/12/01 15:01:24;;;;;;;21.55;6.38;;;;;;;16.37;79.02;95246.25;5074180;28;20024;-26
2023/12/01 15:03:50;;;;;;;17.13;5.80;;;;;;;16.49;78.46;95245.03;5080324;28;20036;-27
2023/12/01 15:06:16;;;;;;;20.33;5.90;;;;;;;16.66;78.19;95243.13;5072664;28;20024;-27
2023/12/01 15:08:41;;;;;;;20.35;6.55;;;;;;;16.52;78.54;95244.81;5080201;28;20013;-27
2023/12/01 15:11:07;;;;;;;24.48;5.75;;;;;;;16.67;77.30;95243.88;5071957;28;20040;-27
2023/12/01 15:13:32;;;;;;;26.08;6.70;;;;;;;16.84;76.92;95233.69;5082322;28;20028;-27
2023/12/01 15:15:58;;;;;;;19.23;6.10;;;;;;;16.65;77.37;95227.19;5084475;28;20025;-27
2023/12/01 15:18:23;;;;;;;20.20;6.28;;;;;;;16.87;76.07;95219.75;5079366;28;20021;-27
2023/12/01 15:20:48;;;;;;;20.30;6.05;;;;;;;16.72;77.16;95224.72;5080384;28;20024;-26
2023/12/01 15:23:14;;;;;;;21.15;5.65;;;;;;;16.80;76.96;95228.47;5078943;28;20027;-27
2023/12/01 15:25:40;;;;;;;17.52;4.82;;;;;;;17.01;75.65;95217.28;5080344;28;20106;-27
2023/12/01 15:28:06;;;;;;;17.63;5.05;;;;;;;17.13;75.37;95218.78;5079876;28;20095;-27
2023/12/01 15:30:31;;;;;;;20.63;5.28;;;;;;;17.10;74.27;95215.03;5077317;28;20491;-27
2023/12/01 15:32:57;;;;;;;23.77;6.43;;;;;;;17.07;75.29;95220.75;5079863;28;20031;-27
2023/12/01 15:35:22;;;;;;;18.48;5.93;;;;;;;17.03;75.34;95212.81;5071443;28;20027;-27
2023/12/01 15:37:48;;;;;;;20.48;5.20;;;;;;;17.06;75.60;95206.31;5077139;28;20023;-27
2023/12/01 15:40:13;;;;;;;29.10;6.45;;;;;;;16.77;76.07;95207.56;5075442;28;20150;-28
2023/12/01 15:42:40;;;;;;;24.65;5.22;;;;;;;17.19;74.60;95205.81;5071259;28;20104;-27
2023/12/01 15:45:06;;;;;;;18.95;5.22;;;;;;;17.01;75.42;95211.81;5080303;28;20024;-27
2023/12/01 15:47:31;;;;;;;18.80;5.30;;;;;;;17.03;75.32;95206.56;5078055;28;20033;-27
2023/12/01 15:49:57;;;;;;;26.77;5.72;;;;;;;17.00;75.29;95213.78;5084589;28;20016;-28
2023/12/01 15:52:22;;;;;;;22.45;5.97;;;;;;;16.74;76.49;95205.06;5088835;28;20381;-27
2023/12/01 15:54:50;;;;;;;27.45;5.43;;;;;;;17.00;75.27;95211.06;5076829;28;20462;-27
2023/12/01 15:57:18;;;;;;;27.90;5.68;;;;;;;17.00;75.54;95200.09;5083224;28;20465;-27
2023/12/01 15:59:45;;;;;;;22.20;5.05;;;;;;;17.10;74.86;95192.38;5083042;28;20039;-27
2023/12/01 16:02:14;;;;;;;19.40;5.30;;;;;;;17.26;73.71;95193.63;5082987;28;20115;-28
2023/12/01 16:04:39;;;;;;;21.20;5.57;;;;;;;17.17;74.58;95192.63;5082016;28;20043;-29
2023/12/01 16:07:05;;;;;;;21.83;5.47;;;;;;;17.25;74.06;95192.88;5084797;28;20454;-27
2023/12/01 16:09:30;;;;;;;23.13;6.03;;;;;;;17.14;74.51;95192.88;5063691;28;20020;-27
2023/12/01 16:11:56;;;;;;;30.50;6.72;;;;;;;17.23;73.84;95182.41;5082810;28;20032;-27
2023/12/01 16:14:23;;;;;;;21.42;6.38;;;;;;;17.10;74.45;95187.63;5064977;28;20449;-27
2023/12/01 16:16:50;;;;;;;25.83;6.25;;;;;;;17.29;73.29;95185.16;5081676;28;20020;-28
2023/12/01 16:19:15;;;;;;;23.50;7.00;;;;;;;17.08;74.24;95184.66;5083793;28;20470;-27
2023/12/01 16:21:43;;;;;;;27.17;7.32;;;;;;;17.31;73.21;95195.59;5082772;28;20028;-27
2023/12/01 16:24:12;;;;;;;24.95;6.57;;;;;;;17.27;73.24;95193.13;5082469;28;20052;-27
2023/12/01 16:26:38;;;;;;;21.92;6.50;;;;;;;17.14;73.49;95193.63;5085469;28;20030;-27
2023/12/01 16:29:05;;;;;;;20.05;6.10;;;;;;;17.23;72.68;95200.84;5079469;28;20033;-27
2023/12/01 16:31:31;;;;;;;22.20;6.60;;;;;;;17.38;72.88;95212.28;5082083;28;20112;-27
2023/12/01 16:33:56;;;;;;;20.95;5.68;;;;;;;17.26;72.56;95208.06;5082547;28;20100;-27
2023/12/01 16:36:21;;;;;;;23.08;6.30;;;;;;;17.20;73.72;95201.81;5083055;28;20011;-27
2023/12/01 16:38:47;;;;;;;19.95;6.03;;;;;;;17.26;73.36;95194.34;5077862;28;20456;-27
2023/12/01 16:41:13;;;;;;;22.13;6.00;;;;;;;17.09;74.55;95199.09;5080188;28;20034;-27
2023/12/01 16:43:38;;;;;;;18.05;5.35;;;;;;;17.25;73.11;95203.81;5082504;28;20102;-27
2023/12/01 16:46:04;;;;;;;24.35;5.72;;;;;;;17.30;73.04;95208.56;5082088;28;20017;-27
2023/12/01 16:48:29;;;;;;;19.23;6.35;;;;;;;17.26;72.66;95213.53;5082247;28;20044;-27
2023/12/01 16:50:55;;;;;;;16.80;5.30;;;;;;;17.26;73.48;95205.31;5064492;28;20024;-27
2023/12/01 16:53:20;;;;;;;22.77;6.03;;;;;;;17.44;72.73;95204.78;5080137;28;20016;-28
2023/12/01 16:55:46;;;;;;;14.82;4.97;;;;;;;17.13;74.16;95218.78;5076691;28;20127;-27
2023/12/01 16:58:12;;;;;;;16.38;4.93;;;;;;;17.24;73.78;95207.81;5085046;28;20453;-27
2023/12/01 17:00:39;;;;;;;18.15;5.10;;;;;;;17.23;73.99;95207.06;5077809;28;20035;-27
2023/12/01 17:03:04;;;;;;;21.98;6.82;;;;;;;17.22;73.61;95204.81;5089427;28;20499;-27
2023/12/01 17:05:30;;;;;;;21.17;5.28;;;;;;;17.41;72.97;95221.50;5086643;28;20129;-27
2023/12/01 17:07:56;;;;;;;25.38;5.78;;;;;;;17.27;73.29;95212.28;5076497;28;20047;-27
2023/12/01 17:10:23;;;;;;;25.38;6.22;;;;;;;17.16;73.61;95206.81;5056328;28;20099;-28
2023/12/01 17:12:49;;;;;;;27.23;6.55;;;;;;;17.31;73.02;95201.81;5063498;28;20504;-28
2023/12/01 17:15:15;;;;;;;18.08;5.90;;;;;;;17.28;72.70;95197.34;5083018;28;20024;-27
2023/12/01 17:17:40;;;;;;;25.70;5.78;;;;;;;17.32;72.24;95206.03;5079863;28;20029;-28
2023/12/01 17:20:06;;;;;;;21.27;6.07;;;;;;;17.24;72.69;95207.81;5055673;28;20020;-28
2023/12/01 17:22:32;;;;;;;20.63;5.57;;;;;;;17.12;73.29;95212.53;5081633;28;20432;-27
2023/12/01 17:24:58;;;;;;;26.48;6.47;;;;;;;17.18;72.69;95215.28;5081123;28;20078;-27
2023/12/01 17:27:23;;;;;;;25.15;6.13;;;;;;;17.21;72.58;95203.31;5081536;28;20415;-27
2023/12/01 17:29:49;;;;;;;22.50;6.18;;;;;;;17.31;72.27;95218.25;5078810;28;20044;-27
2023/12/01 17:32:14;;;;;;;20.55;5.43;;;;;;;17.21;72.62;95219.75;5077080;28;20025;-27
2023/12/01 17:34:40;;;;;;;22.55;5.55;;;;;;;17.30;72.61;95211.31;5083504;28;20106;-27
2023/12/01 17:37:06;;;;;;;16.42;4.18;;;;;;;17.20;73.14;95234.69;5078931;28;20016;-27
2023/12/01 17:39:31;;;;;;;22.20;5.20;;;;;;;17.16;72.64;95234.22;5081372;28;20462;-27
2023/12/01 17:41:57;;;;;;;21.40;4.78;;;;;;;17.14;73.11;95217.53;5080386;28;20020;-28
2023/12/01 17:44:22;;;;;;;25.92;5.55;;;;;;;17.12;72.65;95218.03;5062754;28;20028;-27
2023/12/01 17:46:48;;;;;;;19.58;5.15;;;;;;;17.14;72.62;95214.78;5082332;28;20043;-27
2023/12/01 17:49:13;;;;;;;16.73;4.60;;;;;;;17.11;72.66;95202.84;5084660;28;20024;-27
2023/12/01 17:51:39;;;;;;;25.13;4.80;;;;;;;17.24;72.27;95202.31;5076206;28;20028;-27
2023/12/01 17:54:05;;;;;;;21.23;4.72;;;;;;;17.23;72.50;95206.31;5081357;28;20066;-26
2023/12/01 17:56:30;;;;;;;19.52;4.97;;;;;;;17.14;72.23;95204.59;5079770;28;20073;-27
2023/12/01 17:58:57;;;;;;;17.80;5.45;;;;;;;17.15;72.44;95189.63;5083194;28;20052;-31
2023/12/01 18:01:23;;;;;;;19.55;6.20;;;;;;;17.07;72.27;95187.88;5086581;28;20020;-31
2023/12/01 18:03:49;;;;;;;16.35;5.65;;;;;;;17.16;71.58;95195.88;5062284;28;20025;-31
2023/12/01 18:06:15;;;;;;;26.52;7.00;;;;;;;17.10;72.19;95201.34;5088059;28;20020;-27
2023/12/01 18:08:43;;;;;;;26.08;7.28;;;;;;;17.06;71.98;95205.59;5079818;28;20099;-27
2023/12/01 18:11:09;;;;;;;20.55;6.15;;;;;;;17.23;70.81;95214.53;5075279;28;20461;-27
2023/12/01 18:13:36;;;;;;;23.67;6.63;;;;;;;17.07;71.61;95204.31;5084262;28;20047;-27
2023/12/01 18:16:02;;;;;;;33.10;6.13;;;;;;;17.18;71.15;95223.50;5075775;28;20103;-27
2023/12/01 18:18:33;;;;;;;19.42;5.15;;;;;;;17.13;71.04;95218.78;5073263;28;20158;-27
2023/12/01 18:21:03;;;;;;;23.00;5.43;;;;;;;16.87;71.80;95219.75;5080772;28;20162;-27
2023/12/01 18:23:40;;;;;;;;;;;;;;;;;;;;;
2023/12/01 18:26:08;;;;;;;17.95;4.40;;;;;;;17.15;70.93;95197.84;5080375;28;20487;-27
2023/12/01 18:28:35;;;;;;;21.02;4.18;;;;;;;17.22;70.99;95210.28;5080632;28;20024;-27
2023/12/01 18:31:01;;;;;;;14.02;3.97;;;;;;;17.08;71.41;95203.06;5080228;28;20020;-27
2023/12/01 18:33:29;;;;;;;21.55;5.15;;;;;;;17.17;70.90;95232.97;5080366;28;20020;-27
2023/12/01 18:35:56;;;;;;;28.60;5.55;;;;;;;16.85;71.77;95221.50;5079499;28;20086;-28
2023/12/01 18:38:22;;;;;;;24.27;4.50;;;;;;;17.05;71.05;95217.78;5080083;28;20016;-27
2023/12/01 18:40:49;;;;;;;18.58;4.68;;;;;;;17.12;70.29;95209.81;5070528;28;20028;-28
2023/12/01 18:43:15;;;;;;;27.48;5.03;;;;;;;17.06;70.41;95209.03;5079459;28;20027;-27
2023/12/01 18:45:42;;;;;;;24.38;5.38;;;;;;;17.12;70.22;95212.53;5075260;28;20024;-27
2023/12/01 18:48:08;;;;;;;23.50;4.82;;;;;;;17.20;69.79;95216.28;5086246;28;20127;-27
2023/12/01 18:50:35;;;;;;;17.85;4.78;;;;;;;17.10;70.16;95214.28;5079791;28;20366;-29
2023/12/01 18:53:03;;;;;;;20.20;4.90;;;;;;;17.22;69.50;95199.34;5087728;28;20020;-27
2023/12/01 18:55:29;;;;;;;19.80;4.97;;;;;;;17.20;69.62;95201.81;5080242;28;20154;-27
2023/12/01 18:57:55;;;;;;;24.10;4.43;;;;;;;17.26;69.21;95201.84;5079659;28;20088;-27
2023/12/01 19:00:21;;;;;;;23.98;5.57;;;;;;;17.19;69.68;95197.59;5084510;28;20130;-27
2023/12/01 19:02:46;;;;;;;25.33;4.97;;;;;;;16.92;70.43;95198.34;5083676;28;20119;-27
2023/12/01 19:05:14;;;;;;;23.25;5.55;;;;;;;16.92;70.14;95193.63;5062827;28;20384;-28
2023/12/01 19:07:40;;;;;;;19.27;5.32;;;;;;;17.24;69.16;95185.88;5080370;28;20107;-27
2023/12/01 19:10:07;;;;;;;21.40;4.80;;;;;;;17.30;68.79;95183.16;5079973;28;20493;-29
2023/12/01 19:12:32;;;;;;;28.35;5.50;;;;;;;16.93;70.00;95195.13;5084348;28;20020;-27
2023/12/01 19:14:58;;;;;;;22.05;4.65;;;;;;;16.96;69.36;95196.09;5082889;28;20028;-27
2023/12/01 19:17:24;;;;;;;23.83;4.60;;;;;;;17.10;68.93;95190.38;5082316;28;20082;-27
2023/12/01 19:19:49;;;;;;;22.00;4.40;;;;;;;17.21;68.29;95203.31;5083599;28;20477;-28
2023/12/01 19:22:15;;;;;;;25.33;5.30;;;;;;;17.13;68.57;95208.56;5081157;28;20039;-27
2023/12/01 19:24:42;;;;;;;23.13;4.97;;;;;;;17.22;68.25;95204.81;5078593;28;20069;-29
2023/12/01 19:27:08;;;;;;;26.60;5.15;;;;;;;17.38;67.43;95209.53;5080084;28;20016;-27
2023/12/01 19:29:35;;;;;;;23.52;5.45;;;;;;;17.23;68.05;95206.31;5084010;28;20065;-27
2023/12/01 19:32:02;;;;;;;20.90;5.80;;;;;;;17.29;67.88;95196.09;5065447;28;20032;-27
2023/12/01 19:34:28;;;;;;;32.65;6.10;;;;;;;17.14;68.36;95201.09;5084194;28;20028;-27
2023/12/01 19:36:54;;;;;;;26.55;5.32;;;;;;;17.34;68.23;95206.31;5076485;28;20024;-27
2023/12/01 19:39:21;;;;;;;24.73;5.95;;;;;;;17.17;68.52;95198.09;5083240;28;20366;-28
2023/12/01 19:41:48;;;;;;;25.60;6.13;;;;;;;17.14;68.53;95187.41;5085576;28;20138;-27
2023/12/01 19:44:14;;;;;;;24.65;5.38;;;;;;;17.09;69.15;95177.94;5086659;28;20085;-27
2023/12/01 19:46:39;;;;;;;29.58;5.72;;;;;;;17.03;69.27;95185.41;5077614;28;20013;-29
2023/12/01 19:49:05;;;;;;;28.75;4.63;;;;;;;17.05;69.36;95193.13;5082968;28;20516;-27
2023/12/01 19:51:31;;;;;;;24.40;4.53;;;;;;;16.94;69.64;95182.91;5082882;28;20032;-27
2023/12/01 19:53:57;;;;;;;14.80;4.18;;;;;;;17.15;68.79;95183.41;5083502;28;20103;-28
2023/12/01 19:56:23;;;;;;;21.88;5.10;;;;;;;16.78;70.05;95184.41;5083315;28;20357;-27
2023/12/01 19:58:50;;;;;;;26.90;4.45;;;;;;;17.00;69.36;95183.66;5075872;28;20019;-28
2023/12/01 20:01:17;;;;;;;28.38;4.40;;;;;;;17.17;68.80;95187.16;5083533;28;20025;-27
2023/12/01 20:03:43;;;;;;;22.92;4.32;;;;;;;17.25;68.49;95198.34;5083051;28;20437;-27
2023/12/01 20:06:10;;;;;;;21.35;4.70;;;;;;;17.07;68.99;95198.84;5077862;28;20028;-27
2023/12/01 20:08:37;;;;;;;25.13;5.03;;;;;;;17.22;68.61;95191.13;5086425;28;20365;-28
2023/12/01 20:11:02;;;;;;;20.63;3.92;;;;;;;17.15;68.91;95191.63;5077260;28;20025;-28
2023/12/01 20:16:49;;;;;;;21.58;3.78;;;;;;;17.19;68.64;95178.41;5085500;28;20059;-27
2023/12/01 20:19:15;;;;;;;22.40;4.20;;;;;;;17.16;68.65;95185.66;5077764;28;20060;-27
2023/12/01 20:21:40;;;;;;;22.25;4.88;;;;;;;17.21;68.42;95195.09;5086366;28;20028;-27
2023/12/01 20:24:08;;;;;;;27.50;6.25;;;;;;;17.08;68.94;95186.63;5078633;28;20035;-27
2023/12/01 20:26:34;;;;;;;33.65;5.70;;;;;;;17.18;68.70;95193.38;5085024;28;20032;-28
2023/12/01 20:28:59;;;;;;;25.48;5.07;;;;;;;17.26;68.08;95191.63;5085541;28;20016;-27
2023/12/01 20:31:25;;;;;;;24.92;5.43;;;;;;;17.06;68.75;95200.81;5083958;28;20045;-27
2023/12/01 20:33:50;;;;;;;31.38;4.80;;;;;;;16.91;69.41;95202.34;5082649;28;20389;-27
2023/12/01 20:36:16;;;;;;;24.67;5.28;;;;;;;17.00;69.02;95207.56;5082600;28;20036;-27
2023/12/01 20:38:41;;;;;;;26.40;5.15;;;;;;;17.18;68.54;95194.09;5082713;28;20024;-27
2023/12/01 20:41:07;;;;;;;25.90;4.55;;;;;;;17.27;68.19;95195.84;5080124;28;20093;-27
2023/12/01 20:43:35;;;;;;;24.98;4.47;;;;;;;17.12;68.86;95195.34;5084694;28;20016;-27
2023/12/01 20:46:04;;;;;;;29.05;4.47;;;;;;;17.03;69.08;95195.63;5082020;28;20017;-27
2023/12/01 20:48:31;;;;;;;18.23;4.05;;;;;;;17.19;68.59;95201.06;5081842;28;20111;-27
2023/12/01 20:50:57;;;;;;;25.65;4.47;;;;;;;16.83;70.13;95202.81;5082989;28;20021;-27
2023/12/01 20:53:22;;;;;;;20.48;4.03;;;;;;;17.04;69.38;95199.84;5080255;28;20112;-28
2023/12/01 20:55:48;;;;;;;20.95;4.00;;;;;;;17.05;69.28;95190.41;5076363;28;20025;-27
2023/12/01 20:58:13;;;;;;;24.83;4.97;;;;;;;17.08;69.72;95205.81;5084714;28;20016;-27
2023/12/01 21:00:39;;;;;;;20.63;4.70;;;;;;;17.15;69.36;95195.13;5078276;28;20051;-28
2023/12/01 21:03:04;;;;;;;17.50;3.60;;;;;;;17.28;68.83;95194.59;5089054;28;20028;-28
2023/12/01 21:05:30;;;;;;;27.70;4.72;;;;;;;16.92;70.15;95187.41;5087143;28;20111;-27
2023/12/01 21:07:55;;;;;;;18.48;4.32;;;;;;;16.78;70.84;95184.41;5084584;28;20022;-27
2023/12/01 21:10:21;;;;;;;21.83;4.45;;;;;;;16.94;70.18;95196.59;5084885;28;20040;-26
2023/12/01 21:12:46;;;;;;;19.55;3.55;;;;;;;17.02;70.20;95175.69;5078752;28;20027;-28
2023/12/01 21:15:13;;;;;;;19.50;3.35;;;;;;;17.15;69.87;95159.50;5082855;28;20423;-27
2023/12/01 21:17:39;;;;;;;26.80;4.95;;;;;;;17.06;69.71;95154.25;5084423;28;20016;-28
2023/12/01 21:20:05;;;;;;;29.42;5.80;;;;;;;16.96;69.72;95155.78;5084252;28;20032;-27
2023/12/01 21:22:30;;;;;;;21.80;3.90;;;;;;;16.91;70.24;95142.84;5084246;28;20020;-28
2023/12/01 21:24:56;;;;;;;19.40;3.55;;;;;;;17.07;69.80;95144.06;5085945;28;20020;-28
2023/12/01 21:27:21;;;;;;;14.82;3.50;;;;;;;16.84;70.57;95138.59;5081152;28;20040;-27
2023/12/01 21:29:48;;;;;;;20.23;3.40;;;;;;;16.71;71.05;95143.81;5081327;28;20021;-27
2023/12/01 21:32:14;;;;;;;33.65;4.75;;;;;;;17.08;69.24;95140.06;5081458;28;20027;-28
2023/12/01 21:34:40;;;;;;;24.25;5.18;;;;;;;17.22;69.04;95136.31;5076575;28;20020;-27
2023/12/01 21:37:06;;;;;;;23.92;3.80;;;;;;;17.07;69.79;95144.06;5084994;28;20472;-27
2023/12/01 21:39:35;;;;;;;18.55;3.78;;;;;;;16.94;69.81;95143.84;5083260;28;20081;-28
2023/12/01 21:42:01;;;;;;;23.70;4.22;;;;;;;17.06;69.72;95137.81;5085639;28;20105;-27
2023/12/01 21:44:26;;;;;;;22.40;4.57;;;;;;;17.07;69.67;95139.31;5083943;28;20082;-29
2023/12/01 21:46:52;;;;;;;24.63;4.93;;;;;;;16.97;70.12;95138.09;5080410;28;20019;-28
2023/12/01 21:49:18;;;;;;;21.52;4.00;;;;;;;17.23;69.22;95148.78;5080945;28;20027;-27
2023/12/01 21:51:43;;;;;;;22.58;3.47;;;;;;;16.81;70.36;95145.06;5081361;28;20032;-27
2023/12/01 21:54:09;;;;;;;22.52;4.10;;;;;;;17.27;68.93;95149.28;5084567;28;20026;-28
2023/12/01 21:56:35;;;;;;;26.15;4.25;;;;;;;17.15;69.27;95150.53;5077644;28;20024;-28
2023/12/01 21:59:00;;;;;;;27.05;4.00;;;;;;;17.04;69.66;95162.25;5080789;28;20039;-28
2023/12/01 22:01:26;;;;;;;23.80;4.18;;;;;;;17.10;69.07;95154.03;5078403;28;20464;-28
2023/12/01 22:03:51;;;;;;;24.42;4.18;;;;;;;17.09;69.68;95164.22;5082675;28;20032;-28
2023/12/01 22:06:17;;;;;;;24.40;3.97;;;;;;;17.07;69.81;95158.50;5076275;28;20457;-27
2023/12/01 22:08:42;;;;;;;26.35;4.10;;;;;;;17.09;69.68;95155.25;5066846;28;20401;-27
2023/12/01 22:11:08;;;;;;;22.80;3.78;;;;;;;17.18;69.36;95171.47;5074236;28;20023;-27
2023/12/01 22:13:33;;;;;;;27.15;5.20;;;;;;;17.10;69.76;95164.97;5083985;28;20420;-27
2023/12/01 22:15:59;;;;;;;28.25;5.00;;;;;;;17.17;69.69;95169.97;5076129;28;20028;-27
2023/12/01 22:18:25;;;;;;;21.55;3.92;;;;;;;17.03;70.00;95170.97;5091076;28;20016;-27
2023/12/01 22:20:50;;;;;;;19.45;3.92;;;;;;;16.95;70.76;95175.44;5078117;28;20108;-28
2023/12/01 22:23:16;;;;;;;28.13;4.40;;;;;;;17.19;69.46;95173.69;5080909;28;20047;-27
2023/12/01 22:25:41;;;;;;;29.25;4.15;;;;;;;16.99;70.82;95173.19;5073840;28;20023;-28
2023/12/01 22:28:06;;;;;;;33.67;5.80;;;;;;;17.23;69.14;95159.72;5080220;28;20456;-28
2023/12/01 22:30:32;;;;;;;28.75;5.80;;;;;;;17.23;69.41;95165.22;5082000;28;20024;-28
2023/12/01 22:32:57;;;;;;;27.85;4.47;;;;;;;17.20;70.02;95171.69;5083613;28;20027;-28
2023/12/01 22:35:23;;;;;;;28.92;4.30;;;;;;;17.06;70.78;95175.47;5074955;28;20028;-27
2023/12/01 22:37:49;;;;;;;27.30;4.72;;;;;;;17.14;69.85;95170.97;5072965;28;20051;-27
2023/12/01 22:40:15;;;;;;;27.08;4.68;;;;;;;17.05;70.69;95173.97;5080039;28;20484;-28
2023/12/01 22:42:41;;;;;;;29.50;4.35;;;;;;;17.11;70.11;95163.72;5074798;28;20025;-27
2023/12/01 22:45:07;;;;;;;23.67;3.90;;;;;;;17.07;70.66;95166.72;5083817;28;20106;-28
2023/12/01 22:47:32;;;;;;;25.98;4.72;;;;;;;17.05;71.17;95152.78;5075873;28;20042;-27
2023/12/01 22:49:58;;;;;;;29.15;5.63;;;;;;;17.04;70.75;95162.25;5080773;28;20059;-27
2023/12/01 22:52:24;;;;;;;22.38;3.97;;;;;;;16.90;71.39;95151.56;5086290;28;20050;-27
2023/12/01 22:54:50;;;;;;;28.20;4.47;;;;;;;17.04;70.79;95161.50;5081758;28;20387;-32
2023/12/01 22:57:16;;;;;;;27.67;4.53;;;;;;;16.82;71.95;95163.00;5084479;28;20500;-31
2023/12/01 22:59:42;;;;;;;25.85;4.13;;;;;;;17.09;70.86;95152.53;5085433;28;20120;-31
2023/12/01 23:02:07;;;;;;;24.30;4.40;;;;;;;16.94;71.61;95130.16;5086457;28;20059;-31
2023/12/01 23:04:33;;;;;;;27.45;4.95;;;;;;;17.02;71.37;95128.38;5087382;28;20082;-31
2023/12/01 23:06:59;;;;;;;25.25;3.92;;;;;;;17.17;70.99;95121.41;5086106;28;20062;-31
2023/12/01 23:09:24;;;;;;;25.58;4.35;;;;;;;17.09;70.85;95119.66;5084627;28;20384;-31
2023/12/01 23:11:49;;;;;;;24.55;5.28;;;;;;;17.03;71.41;95099.75;5083824;28;20019;-31
2023/12/01 23:14:15;;;;;;;21.60;4.47;;;;;;;17.09;70.91;95103.22;5084864;28;20085;-32
2023/12/01 23:16:42;;;;;;;25.55;4.32;;;;;;;16.67;72.43;95098.78;5082097;28;20476;-32
2023/12/01 23:19:08;;;;;;;18.80;3.72;;;;;;;17.03;71.26;95113.44;5078315;28;20111;-31
2023/12/01 23:21:33;;;;;;;33.40;5.05;;;;;;;16.83;71.80;95108.97;5086844;28;20415;-32
2023/12/01 23:23:59;;;;;;;32.00;4.82;;;;;;;16.90;71.56;95105.75;5062386;28;20032;-31
2023/12/01 23:26:24;;;;;;;29.30;4.63;;;;;;;17.10;71.01;95099.22;5090930;28;20032;-31
2023/12/01 23:28:50;;;;;;;29.27;4.88;;;;;;;16.80;72.05;95088.09;5088501;28;20468;-31
2023/12/01 23:31:20;;;;;;;20.10;4.32;;;;;;;16.84;72.21;95089.31;5086418;28;20028;-31
2023/12/01 23:33:46;;;;;;;20.77;4.28;;;;;;;16.88;71.76;95095.28;5065642;28;20043;-31
2023/12/01 23:36:12;;;;;;;28.50;4.00;;;;;;;16.83;72.53;95078.84;5083360;28;20469;-31
2023/12/01 23:38:37;;;;;;;26.77;3.50;;;;;;;16.88;72.23;95064.41;5078476;28;20025;-31
2023/12/01 23:41:03;;;;;;;27.58;4.82;;;;;;;17.06;71.46;95063.16;5086971;28;20020;-31
2023/12/01 23:43:28;;;;;;;27.60;4.75;;;;;;;16.75;72.02;95048.50;5085465;28;20024;-31
2023/12/01 23:45:54;;;;;;;31.35;4.38;;;;;;;16.91;71.35;95068.91;5086392;28;20020;-31
2023/12/01 23:48:20;;;;;;;29.02;4.93;;;;;;;16.60;73.20;95053.47;5087481;28;20033;-31
2023/12/01 23:50:45;;;;;;;29.65;4.30;;;;;;;17.09;70.75;95049.19;5082915;28;20028;-32
2023/12/01 23:53:11;;;;;;;36.78;5.05;;;;;;;16.73;73.02;95040.03;5080279;28;20020;-31
2023/12/01 23:55:36;;;;;;;28.17;4.82;;;;;;;16.77;72.18;95040.53;5086757;28;20028;-31
2023/12/01 23:58:03;;;;;;;27.10;4.25;;;;;;;17.10;70.78;95049.94;5078473;28;20016;-31
